createdAt,value
2019-03-01T00:01:01.060Z,71.83
2019-03-01T00:03:34.661Z,69.90
2019-03-01T00:06:31.177Z,65.63
2019-03-01T00:09:48.038Z,70.87
2019-03-01T00:13:12.952Z,70.17
2019-03-01T00:16:15.848Z,68.00
2019-03-01T00:19:47.263Z,74.67
2019-03-01T00:23:01.458Z,76.30
2019-03-01T00:26:22.456Z,70.13
2019-03-01T00:29:51.458Z,71.80
2019-03-01T00:32:56.469Z,65.70
2019-03-01T00:36:38.547Z,73.93
2019-03-01T00:40:02.841Z,76.00
2019-03-01T00:43:26.243Z,73.47
2019-03-01T00:45:58.125Z,72.40
2019-03-01T00:48:29.923Z,71.50
2019-03-01T00:51:01.748Z,73.97
2019-03-01T00:53:33.743Z,76.60
2019-03-01T00:56:05.784Z,74.53
2019-03-01T00:58:37.531Z,74.17
2019-03-01T01:01:09.615Z,67.70
2019-03-01T01:03:41.359Z,72.60
2019-03-01T01:06:13.826Z,76.03
2019-03-01T01:08:45.963Z,70.23
2019-03-01T01:14:07.318Z,65.60
2019-03-01T01:16:39.107Z,68.77
2019-03-01T01:19:11.120Z,64.37
2019-03-01T01:21:42.918Z,59.77
2019-03-01T01:24:15.071Z,63.37
2019-03-01T01:26:46.823Z,65.90
2019-03-01T01:29:18.875Z,66.37
2019-03-01T01:31:50.633Z,52.50
2019-03-01T01:34:22.696Z,64.50
2019-03-01T01:36:54.456Z,67.60
2019-03-01T01:39:27.973Z,62.47
2019-03-01T01:41:59.744Z,63.33
2019-03-01T01:44:31.881Z,63.10
2019-03-01T01:47:03.657Z,68.93
2019-03-01T01:49:35.549Z,57.30
2019-03-01T01:52:07.298Z,59.90
2019-03-01T01:54:39.776Z,62.00
2019-03-01T01:57:11.553Z,61.50
2019-03-01T01:59:43.560Z,65.90
2019-03-01T02:02:15.337Z,62.80
2019-03-01T02:04:47.412Z,55.30
2019-03-01T02:07:19.149Z,63.50
2019-03-01T02:09:51.425Z,57.43
2019-03-01T02:12:23.200Z,61.40
2019-03-01T02:14:55.263Z,59.43
2019-03-01T02:17:26.999Z,57.77
2019-03-01T02:19:59.072Z,69.70
2019-03-01T02:22:30.812Z,64.47
2019-03-01T02:25:02.799Z,56.10
2019-03-01T02:27:34.614Z,63.87
2019-03-01T02:30:15.048Z,62.07
2019-03-01T02:32:53.260Z,61.23
2019-03-01T02:35:27.466Z,59.80
2019-03-01T02:37:59.201Z,57.00
2019-03-01T02:40:31.176Z,52.83
2019-03-01T02:43:02.920Z,65.50
2019-03-01T02:45:34.773Z,67.03
2019-03-01T02:48:06.511Z,70.77
2019-03-01T02:50:38.346Z,57.83
2019-03-01T02:53:11.182Z,61.70
2019-03-01T02:55:43.560Z,63.77
2019-03-01T02:58:15.339Z,58.90
2019-03-01T03:00:47.143Z,54.20
2019-03-01T03:03:18.959Z,58.80
2019-03-01T03:06:12.427Z,58.97
2019-03-01T03:08:44.193Z,60.20
2019-03-01T03:11:16.473Z,59.27
2019-03-01T03:13:48.281Z,62.57
2019-03-01T03:16:20.989Z,54.43
2019-03-01T03:18:52.730Z,60.30
2019-03-01T03:21:24.702Z,59.77
2019-03-01T03:23:56.506Z,58.23
2019-03-01T03:26:28.621Z,56.10
2019-03-01T03:29:00.400Z,58.43
2019-03-01T03:31:32.230Z,59.83
2019-03-01T03:34:04.003Z,54.23
2019-03-01T03:36:36.068Z,60.93
2019-03-01T03:39:12.445Z,54.60
2019-03-01T03:41:44.827Z,57.83
2019-03-01T03:44:16.577Z,53.63
2019-03-01T03:46:48.644Z,47.57
2019-03-01T03:49:20.377Z,58.83
2019-03-01T03:51:52.354Z,54.53
2019-03-01T03:54:24.150Z,58.90
2019-03-01T03:56:56.331Z,34.90
2019-03-01T03:59:28.163Z,53.63
2019-03-01T04:02:00.216Z,55.77
2019-03-01T04:04:32.223Z,55.70
2019-03-01T04:07:04.248Z,59.70
2019-03-01T04:09:36.030Z,34.53
2019-03-01T04:12:09.750Z,60.70
2019-03-01T04:14:41.509Z,53.87
2019-03-01T04:17:13.433Z,60.23
2019-03-01T04:19:45.165Z,49.10
2019-03-01T04:22:17.033Z,53.23
2019-03-01T04:24:48.806Z,49.47
2019-03-01T04:27:20.834Z,47.83
2019-03-01T04:29:52.736Z,59.47
2019-03-01T04:32:24.583Z,54.90
2019-03-01T04:34:56.393Z,57.40
2019-03-01T04:37:28.425Z,54.07
2019-03-01T04:40:01.278Z,48.90
2019-03-01T04:42:34.815Z,57.83
2019-03-01T04:45:07.267Z,54.97
2019-03-01T04:47:39.119Z,60.93
2019-03-01T04:50:11.494Z,57.17
2019-03-01T04:52:43.552Z,58.37
2019-03-01T04:55:24.405Z,64.17
2019-03-01T04:57:56.726Z,62.57
2019-03-01T05:00:28.477Z,52.50
2019-03-01T05:03:00.450Z,54.50
2019-03-01T05:05:32.196Z,55.27
2019-03-01T05:08:04.282Z,45.27
2019-03-01T05:10:36.048Z,62.57
2019-03-01T05:13:08.306Z,56.00
2019-03-01T05:15:40.064Z,45.80
2019-03-01T05:18:11.939Z,55.43
2019-03-01T05:20:43.665Z,57.83
2019-03-01T05:23:15.761Z,57.03
2019-03-01T05:25:47.770Z,57.73
2019-03-01T05:28:20.085Z,55.33
2019-03-01T05:30:51.863Z,48.13
2019-03-01T05:33:24.017Z,43.80
2019-03-01T05:35:55.941Z,46.83
2019-03-01T05:38:28.043Z,52.13
2019-03-01T05:40:59.816Z,54.90
2019-03-01T05:43:31.712Z,56.60
2019-03-01T05:46:03.478Z,45.97
2019-03-01T05:48:35.359Z,56.67
2019-03-01T05:51:07.408Z,59.80
2019-03-01T05:53:39.429Z,52.37
2019-03-01T05:56:11.215Z,53.93
2019-03-01T05:59:13.238Z,51.90
2019-03-01T06:02:48.473Z,47.07
2019-03-01T06:05:35.390Z,55.77
2019-03-01T06:09:10.977Z,44.23
2019-03-01T06:12:02.028Z,46.00
2019-03-01T06:15:21.510Z,59.77
2019-03-01T06:18:45.860Z,50.47
2019-03-01T06:22:15.154Z,48.13
2019-03-01T06:26:02.295Z,35.43
2019-03-01T06:29:29.547Z,41.53
2019-03-01T06:33:13.838Z,40.17
2019-03-01T06:36:34.271Z,42.83
2019-03-01T06:40:01.267Z,43.30
2019-03-01T06:43:59.895Z,46.23
2019-03-01T06:47:03.049Z,48.07
2019-03-01T06:50:13.128Z,37.27
2019-03-01T06:52:45.571Z,49.83
2019-03-01T06:55:50.609Z,47.47
2019-03-01T06:58:44.924Z,41.80
2019-03-01T07:01:18.913Z,34.50
2019-03-01T07:03:59.503Z,51.00
2019-03-01T07:06:31.295Z,46.57
2019-03-01T07:09:03.299Z,39.87
2019-03-01T07:11:35.523Z,41.00
2019-03-01T07:14:07.366Z,41.20
2019-03-01T07:16:39.175Z,43.23
2019-03-01T07:19:10.981Z,40.70
2019-03-01T07:21:43.098Z,47.03
2019-03-01T07:24:15.267Z,42.03
2019-03-01T07:26:47.039Z,37.50
2019-03-01T07:29:19.249Z,36.43
2019-03-01T07:31:51.453Z,46.80
2019-03-01T07:34:23.396Z,37.67
2019-03-01T07:36:55.227Z,41.10
2019-03-01T07:39:27.303Z,49.10
2019-03-01T07:41:59.181Z,36.47
2019-03-01T07:44:30.967Z,52.80
2019-03-01T07:47:03.208Z,49.03
2019-03-01T07:49:36.230Z,47.23
2019-03-01T07:52:08.033Z,47.03
2019-03-01T07:54:39.860Z,48.83
2019-03-01T07:57:14.738Z,37.47
2019-03-01T07:59:46.371Z,49.90
2019-03-01T08:02:18.551Z,34.13
2019-03-01T08:04:50.412Z,43.13
2019-03-01T08:07:23.584Z,32.73
2019-03-01T08:09:56.388Z,39.80
2019-03-01T08:12:28.264Z,45.57
2019-03-01T08:15:00.413Z,41.90
2019-03-01T08:17:32.753Z,45.80
2019-03-01T08:20:05.250Z,42.53
2019-03-01T08:22:47.465Z,44.67
2019-03-01T08:25:12.246Z,45.53
2019-03-01T08:27:46.245Z,48.07
2019-03-01T08:30:18.129Z,40.27
2019-03-01T08:32:50.237Z,41.63
2019-03-01T08:35:25.282Z,38.57
2019-03-01T08:37:55.701Z,40.10
2019-03-01T08:40:27.756Z,42.03
2019-03-01T08:42:59.553Z,20.33
2019-03-01T08:45:32.979Z,39.47
2019-03-01T08:48:05.385Z,31.90
2019-03-01T08:50:37.533Z,32.50
2019-03-01T08:53:11.490Z,36.70
2019-03-01T08:55:42.946Z,36.53
2019-03-01T08:58:14.713Z,31.87
2019-03-01T09:00:47.042Z,44.77
2019-03-01T09:03:38.828Z,40.43
2019-03-01T09:06:10.915Z,41.13
2019-03-01T09:08:45.953Z,39.60
2019-03-01T09:11:16.577Z,41.53
2019-03-01T09:13:48.890Z,37.63
2019-03-01T09:16:21.123Z,33.57
2019-03-01T09:18:52.927Z,39.50
2019-03-01T09:21:25.068Z,42.10
2019-03-01T09:23:56.944Z,41.43
2019-03-01T09:26:29.081Z,43.43
2019-03-01T09:29:00.856Z,39.70
2019-03-01T09:31:32.903Z,35.43
2019-03-01T09:34:06.196Z,30.10
2019-03-01T09:36:51.456Z,39.00
2019-03-01T09:39:24.309Z,34.07
2019-03-01T09:42:02.880Z,30.53
2019-03-01T09:44:29.793Z,30.93
2019-03-01T09:47:02.601Z,29.57
2019-03-01T09:49:36.375Z,28.93
2019-03-01T09:52:08.593Z,21.80
2019-03-01T09:54:40.413Z,30.63
2019-03-01T09:57:15.629Z,25.50
2019-03-01T09:59:46.144Z,34.03
2019-03-01T10:02:18.384Z,30.77
2019-03-01T10:04:51.242Z,21.87
2019-03-01T10:07:23.347Z,25.90
2019-03-01T10:09:55.200Z,24.23
2019-03-01T10:12:27.374Z,20.43
2019-03-01T10:14:59.217Z,28.17
2019-03-01T10:17:31.176Z,24.63
2019-03-01T10:20:03.140Z,23.20
2019-03-01T10:22:35.114Z,26.87
2019-03-01T10:25:08.117Z,24.87
2019-03-01T10:27:40.385Z,21.97
2019-03-01T10:30:18.435Z,19.50
2019-03-01T10:32:50.639Z,21.17
2019-03-01T10:35:22.781Z,22.67
2019-03-01T10:37:54.796Z,27.60
2019-03-01T10:40:26.644Z,22.93
2019-03-01T10:42:58.822Z,24.33
2019-03-01T10:45:30.755Z,23.60
2019-03-01T10:48:02.597Z,21.37
2019-03-01T10:50:34.695Z,22.00
2019-03-01T10:53:06.793Z,34.30
2019-03-01T10:55:38.686Z,23.73
2019-03-01T10:58:10.592Z,24.97
2019-03-01T11:00:42.482Z,28.93
2019-03-01T11:03:14.829Z,21.07
2019-03-01T11:05:47.051Z,20.37
2019-03-01T11:08:18.891Z,14.97
2019-03-01T11:10:50.665Z,18.77
2019-03-01T11:13:22.787Z,21.63
2019-03-01T11:15:54.585Z,23.20
2019-03-01T11:18:26.612Z,14.03
2019-03-01T11:20:58.763Z,16.73
2019-03-01T11:23:32.636Z,19.20
2019-03-01T11:26:04.182Z,17.23
2019-03-01T11:28:36.311Z,22.87
2019-03-01T11:31:08.141Z,25.87
2019-03-01T11:33:40.227Z,20.43
2019-03-01T11:36:12.816Z,27.30
2019-03-01T11:38:44.830Z,17.27
2019-03-01T11:41:16.693Z,20.70
2019-03-01T11:43:48.808Z,17.53
2019-03-01T11:46:20.884Z,17.00
2019-03-01T11:48:52.805Z,16.13
2019-03-01T11:51:24.788Z,14.07
2019-03-01T11:53:56.867Z,17.47
2019-03-01T11:56:28.649Z,21.60
2019-03-01T11:59:00.792Z,22.97
2019-03-01T12:01:33.651Z,26.20
2019-03-01T12:04:05.795Z,16.90
2019-03-01T12:06:37.959Z,18.20
2019-03-01T12:09:10.380Z,17.73
2019-03-01T12:11:42.234Z,20.47
2019-03-01T12:14:14.080Z,17.80
2019-03-01T12:16:45.939Z,22.27
2019-03-01T12:19:18.070Z,21.37
2019-03-01T12:21:50.260Z,22.20
2019-03-01T12:24:22.135Z,22.07
2019-03-01T12:26:53.920Z,16.13
2019-03-01T12:29:25.890Z,18.87
2019-03-01T12:31:57.703Z,20.33
2019-03-01T12:34:29.859Z,18.23
2019-03-01T12:37:01.900Z,16.07
2019-03-01T12:39:33.831Z,19.70
2019-03-01T12:42:05.612Z,17.13
2019-03-01T12:44:37.552Z,14.83
2019-03-01T12:47:09.343Z,15.97
2019-03-01T12:49:41.631Z,18.17
2019-03-01T12:52:13.728Z,14.57
2019-03-01T12:54:45.675Z,18.13
2019-03-01T12:57:17.642Z,15.50
2019-03-01T12:59:49.537Z,15.83
2019-03-01T13:02:21.329Z,16.27
2019-03-01T13:04:54.483Z,15.77
2019-03-01T13:07:26.883Z,16.50
2019-03-01T13:09:58.950Z,17.27
2019-03-01T13:12:32.299Z,14.90
2019-03-01T13:15:04.336Z,13.90
2019-03-01T13:17:37.228Z,14.83
2019-03-01T13:20:14.070Z,14.67
2019-03-01T13:22:46.467Z,17.13
2019-03-01T13:25:19.572Z,12.33
2019-03-01T13:27:52.372Z,15.60
2019-03-01T13:30:25.241Z,13.53
2019-03-01T13:32:58.940Z,11.33
2019-03-01T13:35:30.921Z,18.07
2019-03-01T13:38:03.910Z,16.77
2019-03-01T13:40:36.281Z,13.20
2019-03-01T13:43:08.889Z,17.67
2019-03-01T13:45:41.052Z,14.50
2019-03-01T13:48:15.807Z,14.47
2019-03-01T13:50:46.689Z,14.13
2019-03-01T13:53:19.889Z,13.67
2019-03-01T13:55:52.382Z,16.73
2019-03-01T13:58:27.705Z,17.23
2019-03-01T14:00:57.960Z,13.93
2019-03-01T14:03:29.746Z,18.40
2019-03-01T14:06:02.255Z,15.63
2019-03-01T14:08:34.658Z,19.30
2019-03-01T14:11:06.613Z,16.30
2019-03-01T14:13:38.556Z,17.43
2019-03-01T14:16:10.443Z,18.03
2019-03-01T14:18:42.258Z,17.97
2019-03-01T14:21:14.338Z,14.73
2019-03-01T14:23:46.354Z,15.17
2019-03-01T14:26:19.385Z,16.13
2019-03-01T14:28:51.638Z,17.80
2019-03-01T14:31:23.961Z,15.10
2019-03-01T14:33:55.790Z,16.47
2019-03-01T14:36:27.969Z,20.10
2019-03-01T14:38:59.933Z,17.20
2019-03-01T14:41:35.083Z,16.77
2019-03-01T14:44:05.716Z,20.37
2019-03-01T14:46:37.762Z,15.33
2019-03-01T14:49:09.660Z,15.47
2019-03-01T14:51:46.519Z,19.90
2019-03-01T14:54:15.698Z,15.53
2019-03-01T14:56:59.869Z,22.17
2019-03-01T15:00:16.494Z,21.50
2019-03-01T15:03:30.687Z,20.13
2019-03-01T15:06:03.322Z,17.10
2019-03-01T15:08:35.494Z,20.03
2019-03-01T15:11:11.814Z,17.93
2019-03-01T15:13:44.153Z,16.97
2019-03-01T15:16:16.053Z,20.23
2019-03-01T15:18:48.157Z,16.03
2019-03-01T15:21:21.371Z,19.17
2019-03-01T15:23:56.204Z,17.30
2019-03-01T15:26:27.942Z,17.67
2019-03-01T15:29:00.926Z,10.83
2019-03-01T15:31:32.952Z,11.03
2019-03-01T15:34:05.146Z,11.27
2019-03-01T15:36:36.983Z,11.80
2019-03-01T15:39:09.498Z,12.57
2019-03-01T15:41:43.047Z,11.30
2019-03-01T15:44:15.807Z,10.97
2019-03-01T15:46:49.958Z,9.33
2019-03-01T15:49:23.690Z,16.23
2019-03-01T15:51:55.760Z,10.07
2019-03-01T15:54:27.937Z,9.93
2019-03-01T15:57:00.167Z,7.77
2019-03-01T15:59:32.359Z,10.67
2019-03-01T16:02:05.362Z,11.20
2019-03-01T16:04:37.304Z,8.60
2019-03-01T16:07:09.193Z,8.67
2019-03-01T16:09:41.296Z,13.50
2019-03-01T16:12:13.421Z,18.63
2019-03-01T16:14:45.584Z,13.33
2019-03-01T16:17:17.429Z,8.93
2019-03-01T16:19:50.155Z,12.67
2019-03-01T16:22:24.246Z,11.23
2019-03-01T16:24:56.393Z,8.97
2019-03-01T16:27:28.483Z,8.20
2019-03-01T16:30:00.868Z,9.60
2019-03-01T16:32:33.401Z,10.53
2019-03-01T16:35:06.102Z,8.30
2019-03-01T16:37:38.688Z,10.37
2019-03-01T16:40:13.067Z,6.20
2019-03-01T16:42:45.113Z,9.13
2019-03-01T16:45:20.957Z,7.43
2019-03-01T16:47:52.132Z,9.00
2019-03-01T16:50:24.609Z,7.63
2019-03-01T16:52:56.758Z,14.13
2019-03-01T16:55:28.895Z,7.77
2019-03-01T16:58:06.773Z,8.13
2019-03-01T17:00:37.990Z,8.47
2019-03-01T17:03:10.091Z,8.57
2019-03-01T17:05:42.318Z,8.17
2019-03-01T17:08:14.286Z,9.90
2019-03-01T17:10:46.469Z,9.30
2019-03-01T17:13:18.851Z,8.67
2019-03-01T17:15:51.195Z,9.10
2019-03-01T17:18:23.639Z,12.23
2019-03-01T17:20:55.846Z,10.30
2019-03-01T17:23:27.695Z,13.27
2019-03-01T17:25:59.718Z,9.53
2019-03-01T17:28:31.789Z,8.53
2019-03-01T17:31:03.795Z,8.60
2019-03-01T17:33:35.680Z,9.97
2019-03-01T17:36:07.813Z,9.93
2019-03-01T17:38:43.508Z,10.63
2019-03-01T17:41:13.844Z,10.20
2019-03-01T17:43:45.930Z,11.13
2019-03-01T17:46:19.495Z,7.23
2019-03-01T17:48:54.177Z,8.30
2019-03-01T17:51:25.763Z,10.53
2019-03-01T17:53:57.833Z,8.77
2019-03-01T17:56:30.315Z,6.60
2019-03-01T17:59:02.717Z,11.87
2019-03-01T18:01:38.972Z,8.23
2019-03-01T18:04:09.562Z,10.90
2019-03-01T18:06:42.261Z,8.27
2019-03-01T18:09:16.230Z,8.67
2019-03-01T18:11:50.053Z,9.47
2019-03-01T18:14:22.986Z,13.43
2019-03-01T18:16:57.074Z,8.67
2019-03-01T18:19:29.755Z,9.10
2019-03-01T18:22:02.154Z,8.00
2019-03-01T18:24:34.805Z,6.63
2019-03-01T18:27:08.207Z,7.90
2019-03-01T18:29:42.396Z,9.87
2019-03-01T18:32:17.198Z,7.20
2019-03-01T18:34:50.745Z,8.73
2019-03-01T18:37:24.739Z,6.00
2019-03-01T18:39:57.716Z,11.20
2019-03-01T18:42:34.306Z,8.03
2019-03-01T18:45:07.924Z,6.70
2019-03-01T18:47:40.868Z,13.70
2019-03-01T18:50:18.753Z,5.97
2019-03-01T18:52:53.215Z,10.67
2019-03-01T18:55:24.960Z,10.10
2019-03-01T18:57:57.283Z,10.20
2019-03-01T19:00:35.635Z,11.33
2019-03-01T19:03:08.704Z,9.20
2019-03-01T19:05:41.499Z,8.80
2019-03-01T19:08:14.162Z,7.20
2019-03-01T19:10:53.999Z,10.40
2019-03-01T19:13:23.874Z,9.00
2019-03-01T19:15:54.846Z,10.70
2019-03-01T19:18:27.314Z,10.60
2019-03-01T19:20:59.828Z,7.83
2019-03-01T19:23:33.371Z,10.03
2019-03-01T19:26:06.778Z,9.97
2019-03-01T19:28:39.499Z,7.93
2019-03-01T19:31:12.889Z,9.20
2019-03-01T19:33:46.480Z,9.13
2019-03-01T19:36:18.967Z,12.00
2019-03-01T19:38:51.822Z,7.33
2019-03-01T19:41:24.627Z,8.33
2019-03-01T19:43:58.471Z,7.67
2019-03-01T19:46:32.317Z,5.43
2019-03-01T19:49:05.951Z,6.73
2019-03-01T19:51:39.132Z,4.77
2019-03-01T19:54:14.170Z,4.40
2019-03-01T19:56:48.348Z,3.37
2019-03-01T19:59:22.228Z,7.33
2019-03-01T20:01:56.303Z,5.43
2019-03-01T20:04:30.662Z,4.73
2019-03-01T20:07:04.392Z,5.13
2019-03-01T20:09:39.759Z,5.00
2019-03-01T20:12:14.197Z,4.17
2019-03-01T20:14:47.725Z,6.23
2019-03-01T20:17:21.862Z,6.80
2019-03-01T20:19:56.986Z,7.30
2019-03-01T20:22:32.153Z,5.33
2019-03-01T20:25:06.507Z,8.67
2019-03-01T20:27:40.277Z,5.50
2019-03-01T20:30:28.820Z,6.50
2019-03-01T20:32:57.378Z,6.23
2019-03-01T20:35:31.115Z,5.37
2019-03-01T20:38:04.841Z,3.60
2019-03-01T20:40:39.314Z,4.37
2019-03-01T20:43:12.760Z,6.17
2019-03-01T20:45:48.001Z,4.90
2019-03-01T20:48:25.667Z,4.97
2019-03-01T20:50:57.956Z,4.10
2019-03-01T20:53:31.679Z,3.27
2019-03-01T20:56:05.750Z,3.00
2019-03-01T20:58:39.554Z,3.60
2019-03-01T21:01:14.785Z,3.30
2019-03-01T21:03:48.731Z,4.90
2019-03-01T21:06:23.752Z,5.83
2019-03-01T21:09:00.692Z,4.73
2019-03-01T21:11:33.006Z,6.03
2019-03-01T21:14:06.542Z,5.13
2019-03-01T21:16:41.439Z,4.77
2019-03-01T21:19:16.086Z,7.13
2019-03-01T21:21:49.895Z,5.80
2019-03-01T21:24:26.569Z,6.53
2019-03-01T21:26:59.621Z,4.20
2019-03-01T21:29:32.515Z,5.30
2019-03-01T21:32:05.380Z,8.13
2019-03-01T21:34:38.437Z,3.33
2019-03-01T21:37:11.921Z,4.03
2019-03-01T21:39:45.378Z,3.73
2019-03-01T21:42:20.250Z,4.33
2019-03-01T21:44:53.456Z,4.47
2019-03-01T21:47:27.229Z,4.07
2019-03-01T21:49:59.966Z,5.80
2019-03-01T21:52:33.648Z,4.93
2019-03-01T21:55:06.237Z,3.87
2019-03-01T21:57:39.913Z,5.97
2019-03-01T22:00:16.254Z,5.33
2019-03-01T22:02:52.790Z,2.60
2019-03-01T22:05:22.411Z,2.97
2019-03-01T22:07:55.301Z,2.23
2019-03-01T22:10:27.181Z,3.77
2019-03-01T22:13:00.532Z,5.33
2019-03-01T22:15:32.978Z,5.63
2019-03-01T22:18:05.479Z,3.87
2019-03-01T22:20:37.292Z,2.97
2019-03-01T22:23:10.220Z,4.80
2019-03-01T22:25:43.255Z,4.00
2019-03-01T22:28:15.354Z,5.07
2019-03-01T22:30:47.204Z,5.23
2019-03-01T22:33:20.759Z,6.43
2019-03-01T22:35:53.120Z,3.63
2019-03-01T22:38:25.007Z,4.40
2019-03-01T22:40:56.875Z,3.37
2019-03-01T22:43:28.967Z,4.27
2019-03-01T22:46:00.926Z,3.87
2019-03-01T22:48:33.930Z,3.77
2019-03-01T22:51:06.165Z,3.90
2019-03-01T22:53:38.615Z,4.40
2019-03-01T22:56:13.010Z,7.70
2019-03-01T22:58:45.385Z,3.17
2019-03-01T23:01:33.676Z,8.20
2019-03-01T23:04:07.881Z,3.43
2019-03-01T23:06:39.940Z,5.77
2019-03-01T23:09:17.689Z,4.23
2019-03-01T23:11:49.593Z,3.47
2019-03-01T23:14:21.958Z,2.83
2019-03-01T23:16:54.491Z,3.10
2019-03-01T23:19:28.751Z,3.10
2019-03-01T23:22:00.899Z,4.37
2019-03-01T23:24:35.117Z,3.60
2019-03-01T23:27:06.562Z,3.43
2019-03-01T23:29:39.939Z,2.53
2019-03-01T23:32:15.399Z,2.10
2019-03-01T23:34:45.588Z,3.90
2019-03-01T23:37:17.903Z,3.60
2019-03-01T23:39:50.059Z,3.50
2019-03-01T23:42:22.055Z,3.63
2019-03-01T23:44:54.426Z,6.07
2019-03-01T23:47:26.194Z,4.20
2019-03-01T23:49:59.382Z,4.40
2019-03-01T23:52:31.573Z,3.80
2019-03-01T23:55:03.580Z,3.93
2019-03-01T23:57:38.101Z,3.73
